San Antonio North's Hourly Summary for Friday, May 11, 2018
Hour Temp
(f)
RH
(%)
Solar Rad.
(MJ/m2)
Rainfall
(in)
Wind
(mph)
5/11/2018 12:00 AM 72 68 0 0 1.43
5/11/2018 1:00 AM 70 76 0 0 1
5/11/2018 2:00 AM 70 84 0 0 0.95
5/11/2018 3:00 AM 70 83 0 0 1.7
5/11/2018 4:00 AM 69 85 0 0 1.53
5/11/2018 5:00 AM 69 86 0 0 1.09
5/11/2018 6:00 AM 69 85 0 0 1.31
5/11/2018 7:00 AM 69 85 0.01 0 1.05
5/11/2018 8:00 AM 69 85 0.14 0 1.02
5/11/2018 9:00 AM 71 71 0.74 0 0.96
5/11/2018 10:00 AM 76 60 1.71 0 2.25
5/11/2018 11:00 AM 79 50 2.75 0 2.93
5/11/2018 12:00 PM 81 43 2.79 0 2.35
5/11/2018 1:00 PM 83 41 2.78 0 1.93
5/11/2018 2:00 PM 86 36 3.56 0 1.82
5/11/2018 3:00 PM 88 32 3.53 0 1.9
5/11/2018 4:00 PM 89 30 3.16 0 2
5/11/2018 5:00 PM 91 30 2.68 0 1.66
5/11/2018 6:00 PM 90 31 1.98 0 2.36
5/11/2018 7:00 PM 88 34 1.11 0 2.51
5/11/2018 8:00 PM 85 37 0.42 0 3.03
5/11/2018 9:00 PM 81 44 0.01 0 2.15
5/11/2018 10:00 PM 78 56 0 0 2.67
5/11/2018 11:00 PM 75 68 0 0 2.3
Data Summary 77 58 27.37 0.00 1.83